Time;durP1;ratioP1;P1;durP2;ratioP2;P2;SDS_P1;SDS_P2;PMS_P1;PMS_P2;Temp;Humidity;BMP_temperature;BMP_pressure;BME280_temperature;BME280_humidity;BME280_pressure;Samples;Min_cycle;Max_cycle;Signal;HPM_P1;HPM_P2
2022/03/28 00:00:21;;;;;;;11.93;8.13;;;;;;;4.47;100.00;102606.38;5059938;28;20040;-75
2022/03/28 00:02:47;;;;;;;10.38;7.38;;;;;;;4.48;100.00;102613.25;5057348;28;20044;-75
2022/03/28 00:05:13;;;;;;;10.05;7.53;;;;;;;4.40;100.00;102613.56;5064237;28;20405;-75
2022/03/28 00:07:40;;;;;;;13.13;7.50;;;;;;;4.46;100.00;102612.47;5044221;28;20752;-76
2022/03/28 00:10:07;;;;;;;15.23;9.75;;;;;;;4.42;100.00;102608.31;5038991;28;20036;-76
2022/03/28 00:12:33;;;;;;;16.60;9.77;;;;;;;4.45;100.00;102608.19;5047424;28;20037;-76
2022/03/28 00:15:01;;;;;;;16.50;9.93;;;;;;;4.41;100.00;102614.44;5062870;28;20051;-76
2022/03/28 00:17:27;;;;;;;22.25;11.00;;;;;;;4.39;100.00;102613.63;5062579;28;20037;-73
2022/03/28 00:19:53;;;;;;;21.27;11.55;;;;;;;4.39;100.00;102609.28;5058044;28;20115;-75
2022/03/28 00:22:19;;;;;;;23.08;12.57;;;;;;;4.41;100.00;102602.28;5058799;28;20119;-76
2022/03/28 00:24:45;;;;;;;17.27;10.60;;;;;;;4.32;100.00;102596.59;5028521;28;20033;-76
2022/03/28 00:27:10;;;;;;;19.00;10.70;;;;;;;4.35;100.00;102596.47;5047877;28;20127;-76
2022/03/28 00:29:36;;;;;;;17.25;10.27;;;;;;;4.39;100.00;102588.50;5029270;28;20051;-76
2022/03/28 00:32:02;;;;;;;15.23;10.52;;;;;;;4.25;100.00;102578.63;5041547;28;20402;-75
2022/03/28 00:34:28;;;;;;;23.08;12.13;;;;;;;4.25;100.00;102581.22;5029583;28;20036;-75
2022/03/28 00:36:53;;;;;;;26.85;13.13;;;;;;;4.25;100.00;102573.44;5065832;28;20051;-75
2022/03/28 00:39:20;;;;;;;27.10;14.02;;;;;;;4.42;100.00;102566.72;5060904;28;20040;-76
2022/03/28 00:41:47;;;;;;;27.92;14.55;;;;;;;4.33;100.00;102557.53;5051480;28;20473;-76
2022/03/28 00:44:13;;;;;;;23.17;13.15;;;;;;;4.35;100.00;102558.34;5050043;28;20041;-76
2022/03/28 00:46:40;;;;;;;23.73;14.18;;;;;;;4.30;100.00;102549.88;5045519;28;20037;-77
2022/03/28 00:49:06;;;;;;;24.45;13.20;;;;;;;4.33;100.00;102548.91;5057586;28;22487;-76
2022/03/28 00:51:32;;;;;;;27.70;14.40;;;;;;;4.29;100.00;102543.84;5046193;28;20094;-74
2022/03/28 00:53:58;;;;;;;28.15;13.65;;;;;;;4.20;100.00;102543.34;5054799;28;20029;-77
2022/03/28 00:56:24;;;;;;;25.17;13.35;;;;;;;4.19;100.00;102542.50;5062941;28;20583;-76
2022/03/28 00:58:50;;;;;;;24.23;12.13;;;;;;;4.18;100.00;102542.56;5064523;28;20038;-76
2022/03/28 01:01:15;;;;;;;21.63;12.48;;;;;;;4.26;100.00;102540.53;5040344;28;20044;-75
2022/03/28 01:03:41;;;;;;;20.90;11.82;;;;;;;4.22;100.00;102538.94;5044492;28;20055;-75
2022/03/28 01:06:07;;;;;;;20.30;11.95;;;;;;;4.18;100.00;102533.06;5064794;28;20056;-76
2022/03/28 01:08:34;;;;;;;19.80;11.98;;;;;;;4.32;100.00;102532.50;5051254;28;20036;-76
2022/03/28 01:11:09;;;;;;;25.00;12.00;;;;;;;4.18;100.00;102529.59;5026201;28;20044;-75
2022/03/28 01:13:37;;;;;;;24.20;12.00;;;;;;;4.20;100.00;102528.63;5046672;28;20378;-75
2022/03/28 01:16:04;;;;;;;20.35;11.48;;;;;;;4.06;100.00;102523.97;5062943;28;20040;-75
2022/03/28 01:18:30;;;;;;;23.67;12.45;;;;;;;4.14;100.00;102523.66;5058635;28;20032;-77
2022/03/28 01:20:57;;;;;;;20.02;10.77;;;;;;;4.26;100.00;102523.19;5050680;28;20032;-76
2022/03/28 01:23:23;;;;;;;20.73;11.52;;;;;;;4.19;100.00;102519.13;5029626;28;20040;-76
2022/03/28 01:25:54;;;;;;;22.27;12.48;;;;;;;4.19;100.00;102515.72;5045406;28;20052;-76
2022/03/28 01:28:22;;;;;;;21.23;11.43;;;;;;;4.23;100.00;102512.91;5065667;28;20031;-76
2022/03/28 01:30:48;;;;;;;16.48;10.00;;;;;;;4.35;100.00;102511.59;5051762;28;20039;-76
2022/03/28 01:33:14;;;;;;;15.32;9.30;;;;;;;4.24;100.00;102508.59;5049214;28;20040;-76
2022/03/28 01:35:43;;;;;;;19.30;11.15;;;;;;;4.15;100.00;102504.59;5052073;28;20036;-76
2022/03/28 01:38:11;;;;;;;18.40;10.35;;;;;;;4.17;100.00;102505.38;5029702;28;20039;-75
2022/03/28 01:40:39;;;;;;;18.30;10.60;;;;;;;4.22;100.00;102503.44;5055108;28;20040;-76
2022/03/28 01:43:05;;;;;;;20.25;11.48;;;;;;;4.23;100.00;102499.91;5034221;28;20497;-75
2022/03/28 01:45:31;;;;;;;18.75;10.80;;;;;;;4.13;100.00;102502.97;5065670;28;20064;-76
2022/03/28 01:47:57;;;;;;;21.33;11.10;;;;;;;4.21;100.00;102495.72;5032642;28;20029;-75
2022/03/28 01:50:23;;;;;;;19.83;11.13;;;;;;;4.20;100.00;102497.47;5051661;28;20041;-75
2022/03/28 01:52:49;;;;;;;26.48;13.73;;;;;;;4.20;100.00;102497.47;5045209;28;20494;-74
2022/03/28 01:55:15;;;;;;;31.75;16.33;;;;;;;4.01;100.00;102488.69;5042062;28;20048;-73
2022/03/28 01:57:42;;;;;;;41.95;18.90;;;;;;;4.04;100.00;102483.41;5035012;28;20038;-75
2022/03/28 02:00:10;;;;;;;42.22;20.38;;;;;;;3.94;100.00;102482.94;5057918;28;20062;-75
2022/03/28 02:02:36;;;;;;;46.10;21.08;;;;;;;4.03;100.00;102482.56;5051600;28;20051;-75
2022/03/28 02:05:03;;;;;;;35.33;18.00;;;;;;;4.07;100.00;102478.09;5059767;28;20028;-76
2022/03/28 02:07:29;;;;;;;38.50;18.52;;;;;;;4.01;100.00;102475.72;5023700;28;20029;-76
2022/03/28 02:09:55;;;;;;;49.35;20.05;;;;;;;3.99;100.00;102473.19;5048926;28;20024;-76
2022/03/28 02:12:21;;;;;;;49.80;21.55;;;;;;;4.01;100.00;102470.53;5064509;28;20031;-76
2022/03/28 02:14:46;;;;;;;42.90;20.10;;;;;;;4.14;100.00;102466.53;5028218;28;20444;-76
2022/03/28 02:17:12;;;;;;;40.70;19.85;;;;;;;4.15;100.00;102465.63;5025509;28;20040;-75
2022/03/28 02:19:38;;;;;;;42.00;20.20;;;;;;;4.19;100.00;102453.38;5045871;28;20098;-76
2022/03/28 02:22:07;;;;;;;43.15;20.65;;;;;;;4.06;100.00;102453.84;5057643;28;20033;-75
2022/03/28 02:24:34;;;;;;;44.03;20.67;;;;;;;4.14;100.00;102456.13;5033479;28;20055;-76
2022/03/28 02:26:59;;;;;;;34.13;18.15;;;;;;;4.10;100.00;102459.78;5033616;28;20036;-76
2022/03/28 02:29:25;;;;;;;39.67;19.38;;;;;;;4.01;100.00;102457.53;5035251;28;20071;-76
2022/03/28 02:31:51;;;;;;;39.45;20.02;;;;;;;3.97;100.00;102458.59;5048974;28;20032;-76
2022/03/28 02:34:16;;;;;;;41.75;20.23;;;;;;;4.00;100.00;102448.91;5029777;28;20037;-73
2022/03/28 02:36:42;;;;;;;44.70;20.98;;;;;;;4.00;100.00;102448.91;5051597;28;20109;-76
2022/03/28 02:39:08;;;;;;;44.33;21.02;;;;;;;4.13;100.00;102438.88;5031926;28;20524;-76
2022/03/28 02:41:37;;;;;;;42.97;20.83;;;;;;;4.04;100.00;102437.50;5039015;28;20576;-76
2022/03/28 02:44:03;;;;;;;45.22;21.40;;;;;;;4.02;100.00;102447.09;5053471;28;20048;-75
2022/03/28 02:46:29;;;;;;;48.67;21.55;;;;;;;4.04;100.00;102444.44;5058882;28;20064;-76
2022/03/28 02:48:54;;;;;;;44.70;21.45;;;;;;;4.02;100.00;102441.91;5034766;28;20101;-76
2022/03/28 02:51:20;;;;;;;40.33;20.63;;;;;;;4.09;100.00;102442.53;5033595;28;20499;-76
2022/03/28 02:53:46;;;;;;;38.65;19.52;;;;;;;4.01;100.00;102440.25;5050772;28;20025;-75
2022/03/28 02:56:12;;;;;;;41.97;20.02;;;;;;;4.14;100.00;102437.97;5049862;28;20489;-74
2022/03/28 02:58:37;;;;;;;42.10;21.33;;;;;;;4.25;100.00;102429.72;5081520;28;20057;-76
2022/03/28 03:01:03;;;;;;;49.03;23.63;;;;;;;4.14;100.00;102427.56;5051121;28;20032;-74
2022/03/28 03:03:29;;;;;;;48.15;22.33;;;;;;;4.01;100.00;102423.78;5043511;28;20510;-76
2022/03/28 03:05:54;;;;;;;37.17;19.52;;;;;;;3.98;100.00;102421.34;5055901;28;20045;-76
2022/03/28 03:08:22;;;;;;;32.10;17.70;;;;;;;3.91;100.00;102418.13;5058402;28;20076;-76
2022/03/28 03:10:48;;;;;;;25.95;16.00;;;;;;;3.92;100.00;102418.97;5066594;28;20039;-75
2022/03/28 03:13:13;;;;;;;26.13;16.08;;;;;;;4.06;100.00;102419.25;5063906;28;20413;-76
2022/03/28 03:15:40;;;;;;;32.40;17.27;;;;;;;3.97;100.00;102419.63;5033746;28;20141;-76
2022/03/28 03:18:05;;;;;;;29.75;15.77;;;;;;;3.93;100.00;102411.13;5029170;28;20036;-76
2022/03/28 03:20:32;;;;;;;30.55;15.65;;;;;;;3.96;100.00;102412.78;5067000;28;20539;-75
2022/03/28 03:22:58;;;;;;;34.17;17.85;;;;;;;4.01;100.00;102408.22;5064667;28;20574;-75
2022/03/28 03:25:23;;;;;;;36.90;18.92;;;;;;;4.13;100.00;102412.06;5060130;28;20123;-73
2022/03/28 03:27:51;;;;;;;43.65;19.83;;;;;;;4.04;100.00;102408.94;5025286;28;20049;-75
2022/03/28 03:30:19;;;;;;;38.25;19.75;;;;;;;4.06;100.00;102403.69;5049668;28;20024;-76
2022/03/28 03:32:44;;;;;;;41.92;21.38;;;;;;;4.09;100.00;102406.16;5043276;28;20051;-76
2022/03/28 03:35:10;;;;;;;46.35;22.55;;;;;;;3.98;100.00;102404.00;5058583;28;20025;-74
2022/03/28 03:37:37;;;;;;;50.83;24.50;;;;;;;3.88;100.00;102395.75;5075392;28;20040;-75
2022/03/28 03:40:04;;;;;;;53.83;24.48;;;;;;;3.88;100.00;102397.47;5050024;28;20071;-75
2022/03/28 03:42:31;;;;;;;45.85;23.48;;;;;;;4.03;100.00;102401.19;5064469;28;20040;-75
2022/03/28 03:44:58;;;;;;;46.92;23.60;;;;;;;4.03;100.00;102393.41;5026611;28;20082;-75
2022/03/28 03:47:23;;;;;;;54.80;24.98;;;;;;;4.01;100.00;102390.03;5031522;28;20044;-76
2022/03/28 03:49:49;;;;;;;49.00;24.77;;;;;;;4.00;100.00;102386.59;5057738;28;20355;-76
2022/03/28 03:52:15;;;;;;;43.40;22.08;;;;;;;4.00;100.00;102398.75;5049779;28;20032;-75
2022/03/28 03:54:41;;;;;;;43.03;22.23;;;;;;;4.04;100.00;102393.34;5028382;28;20141;-75
2022/03/28 03:57:07;;;;;;;44.78;21.67;;;;;;;3.97;100.00;102404.88;5029979;28;20032;-76
2022/03/28 03:59:33;;;;;;;40.53;20.83;;;;;;;3.97;100.00;102393.66;5063645;28;20041;-75
2022/03/28 04:01:59;;;;;;;41.63;21.25;;;;;;;4.04;100.00;102382.13;5047107;28;20035;-76
2022/03/28 04:04:24;;;;;;;46.50;22.00;;;;;;;3.97;100.00;102388.47;5041363;28;20042;-75
2022/03/28 04:06:50;;;;;;;46.83;22.42;;;;;;;3.95;100.00;102378.16;5032763;28;20098;-75
2022/03/28 04:09:15;;;;;;;46.03;21.52;;;;;;;4.02;100.00;102379.59;5032847;28;20036;-75
2022/03/28 04:11:41;;;;;;;48.92;21.45;;;;;;;3.99;100.00;102364.13;5047984;28;20091;-75
2022/03/28 04:14:07;;;;;;;49.90;23.05;;;;;;;4.03;100.00;102377.81;5049396;28;20028;-73
2022/03/28 04:16:34;;;;;;;48.55;22.65;;;;;;;3.97;100.00;102376.34;5085684;28;20090;-75
2022/03/28 04:19:00;;;;;;;43.45;21.05;;;;;;;3.98;100.00;102372.00;5068248;28;20116;-75
2022/03/28 04:21:25;;;;;;;37.35;19.02;;;;;;;3.96;100.00;102374.66;5069327;28;20037;-75
2022/03/28 04:23:51;;;;;;;32.25;15.68;;;;;;;4.05;100.00;102376.00;5030476;28;20033;-77
2022/03/28 04:26:17;;;;;;;26.33;13.77;;;;;;;4.06;100.00;102377.72;5035799;28;20174;-76
2022/03/28 04:28:43;;;;;;;23.38;12.38;;;;;;;4.13;100.00;102373.13;5035519;28;20071;-76
2022/03/28 04:31:09;;;;;;;25.52;13.00;;;;;;;3.99;100.00;102369.31;5066220;28;20033;-77
2022/03/28 04:33:36;;;;;;;28.90;15.73;;;;;;;4.08;100.00;102373.28;5058088;28;20044;-75
2022/03/28 04:36:04;;;;;;;26.88;15.50;;;;;;;4.11;100.00;102373.19;5050453;28;20449;-74
2022/03/28 04:38:30;;;;;;;27.88;15.15;;;;;;;4.07;100.00;102369.03;5059519;28;20043;-75
2022/03/28 04:40:55;;;;;;;25.23;13.90;;;;;;;4.04;100.00;102371.75;5038481;28;20024;-76
2022/03/28 04:43:21;;;;;;;19.42;10.45;;;;;;;4.03;100.00;102373.50;5057787;28;20037;-75
2022/03/28 04:45:48;;;;;;;18.80;10.52;;;;;;;3.98;100.00;102372.00;5061018;28;20037;-77
2022/03/28 04:48:13;;;;;;;17.48;9.73;;;;;;;3.85;100.00;102380.28;5046167;28;20127;-74
2022/03/28 04:50:39;;;;;;;16.25;10.35;;;;;;;3.85;100.00;102372.50;5050152;28;20143;-74
2022/03/28 04:53:05;;;;;;;15.07;10.27;;;;;;;3.90;100.00;102375.75;5045384;28;20119;-75
2022/03/28 04:55:31;;;;;;;19.13;11.77;;;;;;;4.03;100.00;102367.44;5060931;28;20037;-75
2022/03/28 04:57:56;;;;;;;19.33;11.23;;;;;;;3.95;100.00;102357.38;5046156;28;20036;-76
2022/03/28 05:00:22;;;;;;;21.98;12.10;;;;;;;4.02;100.00;102353.63;5064368;28;20041;-75
2022/03/28 05:02:48;;;;;;;17.55;11.80;;;;;;;3.97;100.00;102339.16;5033374;28;20684;-77
2022/03/28 05:05:14;;;;;;;20.77;12.68;;;;;;;3.96;100.00;102342.66;5058964;28;20047;-75
2022/03/28 05:07:39;;;;;;;17.15;12.70;;;;;;;4.04;100.00;102340.59;5058201;28;20031;-77
2022/03/28 05:10:06;;;;;;;18.17;12.98;;;;;;;4.00;100.00;102344.22;5039680;28;20051;-77
2022/03/28 05:12:33;;;;;;;18.20;12.07;;;;;;;3.99;100.00;102348.53;5040735;28;20115;-76
2022/03/28 05:14:59;;;;;;;19.27;11.52;;;;;;;3.93;100.00;102354.00;5053317;28;20029;-74
2022/03/28 05:17:27;;;;;;;19.58;11.30;;;;;;;3.86;100.00;102350.84;5047440;28;20486;-75
2022/03/28 05:19:54;;;;;;;14.57;10.55;;;;;;;3.92;100.00;102348.88;5066919;28;20036;-74
2022/03/28 05:22:20;;;;;;;17.70;11.00;;;;;;;3.97;100.00;102329.59;5047508;28;20037;-76
2022/03/28 05:24:47;;;;;;;18.30;10.95;;;;;;;4.05;100.00;102345.72;5070708;28;20040;-75
2022/03/28 05:27:14;;;;;;;12.10;7.40;;;;;;;4.00;100.00;102344.22;5036797;28;20512;-74
2022/03/28 05:29:41;;;;;;;12.93;7.38;;;;;;;3.95;100.00;102336.59;5066805;28;20041;-76
2022/03/28 05:32:08;;;;;;;11.23;6.63;;;;;;;3.88;100.00;102340.38;5049071;28;20082;-74
2022/03/28 05:34:34;;;;;;;10.85;6.63;;;;;;;3.95;100.00;102339.22;5065101;28;20040;-75
2022/03/28 05:37:01;;;;;;;12.55;6.90;;;;;;;4.06;100.00;102346.56;5052083;28;20059;-76
2022/03/28 05:39:26;;;;;;;13.85;7.90;;;;;;;4.04;100.00;102348.38;5068959;28;20040;-75
2022/03/28 05:41:53;;;;;;;16.25;9.48;;;;;;;4.09;100.00;102344.66;5047096;28;20024;-75
2022/03/28 05:44:19;;;;;;;16.33;8.93;;;;;;;4.08;100.00;102335.19;5052299;28;20127;-75
2022/03/28 05:46:45;;;;;;;15.60;9.43;;;;;;;4.10;100.00;102329.94;5031725;28;20032;-74
2022/03/28 05:49:11;;;;;;;19.08;9.88;;;;;;;4.08;100.00;102336.94;5032769;28;20045;-76
2022/03/28 05:51:37;;;;;;;19.77;9.20;;;;;;;4.28;100.00;102328.31;5063085;28;20048;-76
2022/03/28 05:54:02;;;;;;;18.70;9.65;;;;;;;4.09;100.00;102329.09;5052663;28;20036;-75
2022/03/28 05:56:28;;;;;;;24.58;11.05;;;;;;;4.05;100.00;102329.28;5046682;28;20035;-75
2022/03/28 05:58:54;;;;;;;24.40;11.40;;;;;;;4.09;100.00;102317.88;5053063;28;20715;-75
2022/03/28 06:01:19;;;;;;;21.23;10.80;;;;;;;4.12;100.00;102322.06;5038102;28;20056;-76
2022/03/28 06:03:45;;;;;;;22.42;10.60;;;;;;;4.23;100.00;102325.88;5026978;28;20031;-76
2022/03/28 06:06:11;;;;;;;20.67;10.60;;;;;;;4.23;100.00;102327.66;5045822;28;20037;-77
2022/03/28 06:08:37;;;;;;;24.60;11.27;;;;;;;4.33;100.00;102326.31;5059894;28;20058;-76
2022/03/28 06:11:03;;;;;;;23.92;12.23;;;;;;;4.31;100.00;102327.31;5035729;28;20041;-75
2022/03/28 06:13:30;;;;;;;22.02;11.30;;;;;;;4.31;100.00;102328.16;5032624;28;20044;-74
2022/03/28 06:15:55;;;;;;;22.95;11.23;;;;;;;4.27;100.00;102327.44;5047390;28;20053;-75
2022/03/28 06:18:21;;;;;;;18.80;10.05;;;;;;;4.36;100.00;102325.38;5031309;28;20098;-77
2022/03/28 06:20:47;;;;;;;17.52;10.55;;;;;;;4.40;100.00;102329.50;5047156;28;20075;-76
2022/03/28 06:23:13;;;;;;;17.40;10.07;;;;;;;4.46;100.00;102327.50;5064953;28;20493;-75
2022/03/28 06:25:40;;;;;;;15.70;10.27;;;;;;;4.50;100.00;102330.78;5054850;28;20024;-75
2022/03/28 06:28:06;;;;;;;17.58;10.55;;;;;;;4.55;100.00;102323.63;5049111;28;20025;-76
2022/03/28 06:30:34;;;;;;;20.25;11.65;;;;;;;4.64;100.00;102324.97;5062232;28;20032;-75
2022/03/28 06:32:59;;;;;;;21.75;11.38;;;;;;;4.58;100.00;102320.91;5029645;28;20024;-75
2022/03/28 06:35:25;;;;;;;22.17;11.70;;;;;;;4.55;100.00;102315.84;5050266;28;20047;-75
2022/03/28 06:37:52;;;;;;;21.85;12.55;;;;;;;4.51;100.00;102316.06;5047583;28;20040;-76
2022/03/28 06:40:18;;;;;;;19.65;12.02;;;;;;;4.49;100.00;102314.34;5048753;28;20463;-75
2022/03/28 06:42:44;;;;;;;20.50;10.52;;;;;;;4.59;100.00;102314.78;5062267;28;20045;-75
2022/03/28 06:45:10;;;;;;;18.95;10.95;;;;;;;4.58;100.00;102310.50;5044580;28;20040;-75
2022/03/28 06:47:37;;;;;;;17.75;11.02;;;;;;;4.57;100.00;102301.00;5056050;28;20028;-76
2022/03/28 06:50:05;;;;;;;20.52;11.10;;;;;;;4.47;100.00;102298.00;5039434;28;20102;-76
2022/03/28 06:52:35;;;;;;;20.08;11.38;;;;;;;4.52;100.00;102295.19;5060345;28;20395;-76
2022/03/28 06:55:01;;;;;;;16.05;8.77;;;;;;;4.46;100.00;102288.53;5060237;28;20090;-76
2022/03/28 06:57:27;;;;;;;14.25;8.45;;;;;;;4.47;100.00;102290.19;5027218;28;20032;-76
2022/03/28 06:59:55;;;;;;;11.45;7.70;;;;;;;4.48;100.00;102285.84;5069490;28;20029;-76
2022/03/28 07:02:21;;;;;;;12.15;8.05;;;;;;;4.43;100.00;102283.44;5050100;28;20040;-76
2022/03/28 07:04:47;;;;;;;10.80;7.13;;;;;;;4.43;100.00;102283.44;5060366;28;20486;-76
2022/03/28 07:07:13;;;;;;;9.85;6.20;;;;;;;4.38;100.00;102279.38;5037242;28;20049;-76
2022/03/28 07:09:39;;;;;;;9.68;5.85;;;;;;;4.42;100.00;102284.34;5053032;28;20059;-75
2022/03/28 07:12:05;;;;;;;8.82;5.70;;;;;;;4.35;100.00;102284.69;5051005;28;20421;-76
2022/03/28 07:14:32;;;;;;;7.07;5.28;;;;;;;4.46;100.00;102288.53;5032100;28;20048;-76
2022/03/28 07:16:59;;;;;;;7.63;4.75;;;;;;;4.41;100.00;102281.84;5031298;28;20032;-76
2022/03/28 07:19:25;;;;;;;5.05;4.55;;;;;;;4.56;100.00;102272.50;5030290;28;20080;-77
2022/03/28 07:21:51;;;;;;;8.27;5.20;;;;;;;4.60;100.00;102281.84;5044494;28;20028;-75
2022/03/28 07:24:17;;;;;;;8.70;4.90;;;;;;;4.61;100.00;102270.53;5043286;28;20045;-76
2022/03/28 07:26:45;;;;;;;6.75;3.13;;;;;;;4.71;100.00;102277.00;5034613;28;20412;-75
2022/03/28 07:29:11;;;;;;;5.38;3.10;;;;;;;4.67;100.00;102278.91;5044046;28;20175;-75
2022/03/28 07:31:39;;;;;;;6.75;3.33;;;;;;;4.68;100.00;102282.34;5065588;28;20033;-75
2022/03/28 07:36:53;;;;;;;4.30;3.10;;;;;;;4.82;100.00;102273.88;5045802;28;20479;-75
2022/03/28 07:39:20;;;;;;;4.72;3.13;;;;;;;4.55;100.00;102269.06;5052770;28;20044;-75
2022/03/28 07:41:47;;;;;;;4.78;3.10;;;;;;;4.65;100.00;102265.13;5047082;28;20505;-75
2022/03/28 07:44:13;;;;;;;5.53;3.58;;;;;;;4.71;100.00;102263.16;5059419;28;20103;-75
2022/03/28 07:46:39;;;;;;;7.80;2.95;;;;;;;4.74;100.00;102265.63;5054813;28;20509;-74
2022/03/28 07:49:07;;;;;;;7.65;3.42;;;;;;;4.79;100.00;102271.44;5049939;28;20500;-75
2022/03/28 07:51:33;;;;;;;4.55;3.10;;;;;;;4.79;100.00;102277.50;5066538;28;20037;-75
2022/03/28 07:53:59;;;;;;;4.30;3.10;;;;;;;4.74;100.00;102269.06;5045249;28;20029;-74
2022/03/28 07:56:25;;;;;;;3.63;2.70;;;;;;;4.92;100.00;102256.97;5055132;28;20513;-76
2022/03/28 07:58:51;;;;;;;3.05;2.25;;;;;;;4.93;100.00;102253.44;5051263;28;20035;-74
2022/03/28 08:01:17;;;;;;;3.10;1.88;;;;;;;5.04;100.00;102255.53;5065721;28;20041;-76
2022/03/28 08:03:43;;;;;;;5.20;2.42;;;;;;;5.17;100.00;102253.19;5044566;28;20040;-74
2022/03/28 08:06:09;;;;;;;4.78;2.58;;;;;;;5.21;100.00;102252.09;5044652;28;20189;-75
2022/03/28 08:08:36;;;;;;;3.97;2.45;;;;;;;5.36;100.00;102243.53;5048087;28;20068;-74
2022/03/28 08:11:07;;;;;;;8.57;3.78;;;;;;;5.43;100.00;102246.69;5059594;28;20036;-74
2022/03/28 08:13:34;;;;;;;3.88;2.92;;;;;;;5.40;100.00;102241.63;5043730;28;20424;-74
2022/03/28 08:16:00;;;;;;;6.40;3.15;;;;;;;5.35;100.00;102235.81;5043291;28;20037;-76
2022/03/28 08:18:26;;;;;;;8.30;4.10;;;;;;;5.42;100.00;102238.03;5048237;28;20032;-75
2022/03/28 08:20:53;;;;;;;6.95;4.55;;;;;;;5.54;100.00;102241.81;5027349;28;20069;-75
2022/03/28 08:23:20;;;;;;;6.97;4.70;;;;;;;5.80;100.00;102239.63;5059071;28;20036;-74
2022/03/28 08:25:47;;;;;;;5.70;3.90;;;;;;;5.90;100.00;102232.19;5038715;28;20037;-75
2022/03/28 08:28:14;;;;;;;4.35;3.03;;;;;;;5.94;100.00;102237.16;5052169;28;20140;-75
2022/03/28 08:30:40;;;;;;;3.35;2.90;;;;;;;5.90;100.00;102233.03;5060276;28;20046;-75
2022/03/28 08:33:05;;;;;;;3.47;2.90;;;;;;;5.98;100.00;102241.31;5066895;28;20025;-74
2022/03/28 08:35:31;;;;;;;4.53;4.05;;;;;;;5.72;100.00;102241.78;5066408;28;20028;-75
2022/03/28 08:37:58;;;;;;;8.80;5.28;;;;;;;5.77;100.00;102240.63;5051147;28;20031;-75
2022/03/28 08:40:24;;;;;;;8.73;5.22;;;;;;;5.92;100.00;102246.81;5056789;28;20041;-75
2022/03/28 08:42:50;;;;;;;5.88;5.13;;;;;;;5.81;100.00;102231.72;5047706;28;20488;-74
2022/03/28 08:45:16;;;;;;;6.75;5.03;;;;;;;5.90;100.00;102235.63;5042281;28;20040;-75
2022/03/28 08:47:44;;;;;;;7.22;5.05;;;;;;;5.96;100.00;102237.13;5065813;28;20059;-75
2022/03/28 08:50:12;;;;;;;6.90;5.95;;;;;;;5.81;100.00;102238.72;5042707;28;20070;-75
2022/03/28 08:52:43;;;;;;;10.98;6.65;;;;;;;5.81;100.00;102226.53;5043999;28;20059;-74
2022/03/28 08:55:11;;;;;;;10.18;6.43;;;;;;;5.85;100.00;102235.84;5043456;28;20142;-76
2022/03/28 08:57:37;;;;;;;17.73;7.65;;;;;;;5.87;100.00;102227.13;5042552;28;20068;-76
2022/03/28 09:00:05;;;;;;;14.05;7.32;;;;;;;5.91;100.00;102226.06;5046301;28;20039;-74
2022/03/28 09:02:37;;;;;;;13.65;7.65;;;;;;;6.08;100.00;102217.38;5060469;28;20394;-76
2022/03/28 09:05:04;;;;;;;11.70;7.15;;;;;;;5.94;100.00;102216.31;5065175;28;20036;-76
2022/03/28 09:07:29;;;;;;;11.43;7.15;;;;;;;6.00;100.00;102215.19;5037045;28;20071;-75
2022/03/28 09:10:13;;;;;;;8.25;5.85;;;;;;;6.03;100.00;102215.03;5037374;28;20032;-76
2022/03/28 09:13:04;;;;;;;14.48;6.15;;;;;;;6.11;100.00;102212.03;5086543;28;20498;-76
2022/03/28 09:15:55;;;;;;;9.13;6.00;;;;;;;6.33;100.00;102209.94;5062259;28;20108;-75
2022/03/28 09:18:32;;;;;;;8.93;5.07;;;;;;;6.21;100.00;102202.78;5057337;28;20032;-75
2022/03/28 09:21:03;;;;;;;6.82;4.70;;;;;;;6.30;100.00;102201.47;5037917;28;20902;-75
2022/03/28 09:23:38;;;;;;;7.30;5.00;;;;;;;6.28;100.00;102203.31;5055022;28;20055;-75
2022/03/28 09:26:10;;;;;;;7.78;4.80;;;;;;;6.15;100.00;102201.34;5033121;28;20059;-74
2022/03/28 09:28:49;;;;;;;9.02;4.00;;;;;;;6.22;100.00;102200.09;5058170;28;20042;-75
2022/03/28 09:31:50;;;;;;;7.07;3.25;;;;;;;6.39;100.00;102193.97;5043836;28;20051;-74
2022/03/28 09:34:17;;;;;;;4.40;3.00;;;;;;;6.31;100.00;102192.69;5057874;28;20040;-74
2022/03/28 09:36:48;;;;;;;5.03;3.05;;;;;;;6.52;100.00;102203.75;5060602;28;20494;-74
2022/03/28 09:39:18;;;;;;;4.65;2.60;;;;;;;6.52;100.00;102193.31;5056037;28;20037;-75
2022/03/28 09:42:01;;;;;;;2.60;2.30;;;;;;;6.67;100.00;102179.44;5039850;28;20029;-74
2022/03/28 09:44:40;;;;;;;3.00;2.75;;;;;;;6.57;100.00;102175.63;5062401;28;20045;-73
2022/03/28 09:47:11;;;;;;;3.03;2.63;;;;;;;6.60;100.00;102184.13;5065101;28;20115;-74
2022/03/28 09:49:39;;;;;;;4.68;2.53;;;;;;;6.80;100.00;102177.81;5040673;28;20631;-74
2022/03/28 09:52:12;;;;;;;4.93;2.40;;;;;;;6.80;100.00;102169.97;5042742;28;20032;-74
2022/03/28 09:54:53;;;;;;;2.72;2.25;;;;;;;7.11;100.00;102185.66;5064999;28;20474;-75
2022/03/28 09:57:23;;;;;;;3.90;2.78;;;;;;;7.44;100.00;102181.97;5038715;28;20102;-75
2022/03/28 09:59:49;;;;;;;9.65;3.10;;;;;;;7.50;99.42;102187.69;5051867;28;20041;-75
2022/03/28 10:02:16;;;;;;;3.78;3.35;;;;;;;7.50;98.73;102173.81;5036099;28;20036;-75
2022/03/28 10:04:44;;;;;;;3.30;3.03;;;;;;;7.27;99.12;102173.41;5036119;28;20028;-75
2022/03/28 10:07:11;;;;;;;4.47;3.47;;;;;;;7.36;100.00;102165.00;5061683;28;20478;-75
2022/03/28 10:09:37;;;;;;;5.47;3.65;;;;;;;7.60;97.86;102165.31;5044487;28;20065;-75
2022/03/28 10:12:05;;;;;;;6.22;3.67;;;;;;;7.56;97.35;102163.81;5036493;28;20098;-75
2022/03/28 10:14:32;;;;;;;5.15;3.65;;;;;;;7.53;99.22;102158.78;5054952;28;20083;-74
2022/03/28 10:17:01;;;;;;;6.07;3.30;;;;;;;7.38;99.36;102157.06;5070104;28;20678;-75
2022/03/28 10:19:30;;;;;;;11.20;4.40;;;;;;;7.51;98.61;102151.97;5054465;28;20661;-75
2022/03/28 10:21:57;;;;;;;6.53;4.10;;;;;;;7.44;99.22;102148.91;5064058;28;20033;-75
2022/03/28 10:24:29;;;;;;;5.13;4.63;;;;;;;7.63;100.00;102150.38;5045528;28;20577;-75
2022/03/28 10:27:00;;;;;;;6.93;4.68;;;;;;;7.73;99.90;102149.75;5037822;28;20447;-76
2022/03/28 10:29:41;;;;;;;7.10;3.47;;;;;;;7.85;97.48;102147.31;5065825;28;20079;-74
2022/03/28 10:32:17;;;;;;;5.57;4.00;;;;;;;7.73;97.46;102154.13;5069508;28;20473;-74
2022/03/28 10:34:54;;;;;;;6.25;5.40;;;;;;;7.97;96.73;102152.63;5067012;28;20032;-75
2022/03/28 10:37:44;;;;;;;6.05;4.35;;;;;;;7.86;95.75;102151.63;5050649;28;20048;-74
2022/03/28 10:40:25;;;;;;;6.03;4.28;;;;;;;7.94;96.14;102133.69;5050719;28;20032;-76
2022/03/28 10:43:01;;;;;;;6.95;4.72;;;;;;;8.10;95.09;102129.19;5063968;28;20732;-75
2022/03/28 10:45:42;;;;;;;10.93;6.00;;;;;;;8.21;94.48;102125.88;5068100;28;20098;-74
2022/03/28 10:48:09;;;;;;;12.25;7.88;;;;;;;8.05;94.75;102127.81;5065206;28;20032;-75
2022/03/28 10:50:38;;;;;;;12.18;8.70;;;;;;;8.11;94.50;102120.41;5065623;28;20678;-75
2022/03/28 10:53:15;;;;;;;10.15;7.63;;;;;;;8.04;94.78;102126.94;5034437;28;20056;-76
2022/03/28 10:55:51;;;;;;;9.32;7.40;;;;;;;8.19;96.48;102112.94;5050065;28;20033;-75
2022/03/28 10:58:21;;;;;;;9.23;6.13;;;;;;;8.30;93.98;102112.22;5043097;28;20029;-76
2022/03/28 11:01:05;;;;;;;9.18;6.72;;;;;;;8.39;92.95;102118.66;5062093;28;20036;-76
2022/03/28 11:03:53;;;;;;;11.73;7.25;;;;;;;8.33;93.68;102119.06;5065301;28;20127;-73
2022/03/28 11:06:49;;;;;;;10.35;6.50;;;;;;;8.79;91.83;102102.16;5042257;28;20406;-74
2022/03/28 11:09:51;;;;;;;12.48;6.68;;;;;;;8.90;89.50;102103.13;5015086;28;20041;-76
2022/03/28 11:12:33;;;;;;;14.30;9.32;;;;;;;8.94;90.61;102095.91;5040895;28;20044;-74
2022/03/28 11:15:11;;;;;;;19.58;14.15;;;;;;;8.85;89.67;102092.13;5029397;28;20032;-75
2022/03/28 11:17:50;;;;;;;22.88;16.88;;;;;;;8.61;90.46;102075.44;5067267;28;20039;-75
2022/03/28 11:20:18;;;;;;;23.27;14.27;;;;;;;8.75;90.44;102067.53;5045822;28;20093;-76
2022/03/28 11:23:09;;;;;;;20.13;14.30;;;;;;;8.82;91.09;102060.94;5029481;28;20811;-74